Perryville, Pennsylvania
Current Conditions -  °F | °C
As of 9:54 PM on Monday 20 Oct 2014 (Local Time) from KIPT Reporting Station
Light Rain Light Rain  
Wind Chill: 53°   Ceiling: 6500
Heat Index: 53°   Visibility: 10mi
Dew Point: 40°   Wind: 0mph
Humidity: 61%   Direction: NA
Pressure: 29.9"   Gusts: NA
Location:  41.3181°N, 77.075°W
Report Text: KIPT 210154Z 00000KT 10SM -RA BKN065 OVC085 12/04 A2990 RMK AO2 RAB47 SLP128 P0000 T01170044
Loading
Personal Weather Stations






























Interactive Weather Map
Tropical Storm Tracking
New forecast layout! Learn more

10-Day Weather Forecast

Advertisements
Track Severe Weather on mobile